createdAt,value
2023-07-01T00:00:12.967Z,17.40
2023-07-01T00:02:41.085Z,17.30
2023-07-01T00:05:09.339Z,17.30
2023-07-01T00:07:37.688Z,17.30
2023-07-01T00:10:06.452Z,17.30
2023-07-01T00:12:34.513Z,17.20
2023-07-01T00:15:02.532Z,17.10
2023-07-01T00:17:32.160Z,17.10
2023-07-01T00:20:00.380Z,17.10
2023-07-01T00:22:28.687Z,17.10
2023-07-01T00:24:57.184Z,17.20
2023-07-01T00:27:25.326Z,17.10
2023-07-01T00:29:53.506Z,17.00
2023-07-01T00:32:21.736Z,17.10
2023-07-01T00:34:51.315Z,16.90
2023-07-01T00:37:19.481Z,16.90
2023-07-01T00:39:47.593Z,16.90
2023-07-01T00:42:16.218Z,16.90
2023-07-01T00:44:44.481Z,16.90
2023-07-01T00:47:13.236Z,16.80
2023-07-01T00:49:42.608Z,16.70
2023-07-01T00:52:12.199Z,16.70
2023-07-01T00:54:40.565Z,16.80
2023-07-01T00:57:09.060Z,16.70
2023-07-01T00:59:37.236Z,16.70
2023-07-01T01:02:09.810Z,16.70
2023-07-01T01:04:46.014Z,16.70
2023-07-01T01:07:23.726Z,16.70
2023-07-01T01:09:58.088Z,16.70
2023-07-01T01:12:31.183Z,16.70
2023-07-01T01:15:00.891Z,16.60
2023-07-01T01:17:31.189Z,16.50
2023-07-01T01:20:02.418Z,16.50
2023-07-01T01:22:42.993Z,16.40
2023-07-01T01:25:19.292Z,16.30
2023-07-01T01:27:49.066Z,16.40
2023-07-01T01:30:17.564Z,16.40
2023-07-01T01:32:45.716Z,16.30
2023-07-01T01:35:13.824Z,16.20
2023-07-01T01:37:47.687Z,16.30
2023-07-01T01:40:24.464Z,16.20
2023-07-01T01:43:01.590Z,16.10
2023-07-01T01:45:30.092Z,16.10
2023-07-01T01:47:58.613Z,16.00
2023-07-01T01:50:27.545Z,16.00
2023-07-01T01:52:58.084Z,16.00
2023-07-01T01:55:27.579Z,16.00
2023-07-01T01:57:57.238Z,16.10
2023-07-01T02:00:25.528Z,16.20
2023-07-01T02:02:53.777Z,16.20
2023-07-01T02:05:21.932Z,16.20
2023-07-01T02:07:50.124Z,16.20
2023-07-01T02:10:20.878Z,16.20
2023-07-01T02:12:49.794Z,16.20
2023-07-01T02:15:19.373Z,16.20
2023-07-01T02:17:48.101Z,16.20
2023-07-01T02:20:16.221Z,16.30
2023-07-01T02:22:44.320Z,16.20
2023-07-01T02:25:12.722Z,16.20
2023-07-01T02:27:40.857Z,16.20
2023-07-01T02:30:10.952Z,16.30
2023-07-01T02:32:40.478Z,16.30
2023-07-01T02:35:09.350Z,16.30
2023-07-01T02:37:37.455Z,16.30
2023-07-01T02:40:06.562Z,16.30
2023-07-01T02:42:34.676Z,16.30
2023-07-01T02:45:03.930Z,16.30
2023-07-01T02:47:32.046Z,16.30
2023-07-01T02:50:02.086Z,16.30
2023-07-01T02:52:30.952Z,16.30
2023-07-01T02:54:58.952Z,16.30
2023-07-01T02:57:26.973Z,16.30
2023-07-01T02:59:56.988Z,16.30
2023-07-01T03:02:25.322Z,16.40
2023-07-01T03:04:53.527Z,16.40
2023-07-01T03:07:23.088Z,16.40
2023-07-01T03:09:51.153Z,16.40
2023-07-01T03:12:19.177Z,16.30
2023-07-01T03:14:47.243Z,16.30
2023-07-01T03:17:15.686Z,16.30
2023-07-01T03:19:44.278Z,16.30
2023-07-01T03:22:18.169Z,16.30
2023-07-01T03:24:47.764Z,16.20
2023-07-01T03:27:15.822Z,16.20
2023-07-01T03:29:43.965Z,16.30
2023-07-01T03:32:12.100Z,16.30
2023-07-01T03:34:41.604Z,16.30
2023-07-01T03:37:09.692Z,16.20
2023-07-01T03:39:37.930Z,16.20
2023-07-01T03:42:08.355Z,16.20
2023-07-01T03:44:36.441Z,16.30
2023-07-01T03:47:04.715Z,16.30
2023-07-01T03:49:32.752Z,16.40
2023-07-01T03:52:00.830Z,16.40
2023-07-01T03:54:28.923Z,16.40
2023-07-01T03:56:56.998Z,16.40
2023-07-01T03:59:26.598Z,16.60
2023-07-01T04:01:54.818Z,16.60
2023-07-01T04:04:22.952Z,16.60
2023-07-01T04:06:51.065Z,16.60
2023-07-01T04:09:19.191Z,16.50
2023-07-01T04:11:47.308Z,16.80
2023-07-01T04:14:16.284Z,16.80
2023-07-01T04:16:46.334Z,16.70
2023-07-01T04:19:14.438Z,16.70
2023-07-01T04:21:42.546Z,16.80
2023-07-01T04:24:10.689Z,16.70
2023-07-01T04:26:38.917Z,16.70
2023-07-01T04:29:06.942Z,16.80
2023-07-01T04:31:35.018Z,16.60
2023-07-01T04:34:04.548Z,16.70
2023-07-01T04:36:32.608Z,16.70
2023-07-01T04:39:00.611Z,16.70
2023-07-01T04:41:28.749Z,16.70
2023-07-01T04:43:58.180Z,16.80
2023-07-01T04:46:26.242Z,16.90
2023-07-01T04:48:54.290Z,16.90
2023-07-01T04:51:23.966Z,17.10
2023-07-01T04:53:52.044Z,17.10
2023-07-01T04:56:22.603Z,17.20
2023-07-01T04:58:50.685Z,17.20
2023-07-01T05:01:19.176Z,17.30
2023-07-01T05:03:47.446Z,17.40
2023-07-01T05:06:15.785Z,17.40
2023-07-01T05:08:45.236Z,17.40
2023-07-01T05:11:13.403Z,17.50
2023-07-01T05:13:41.415Z,17.60
2023-07-01T05:16:09.540Z,17.60
2023-07-01T05:18:37.546Z,17.70
2023-07-01T05:21:05.881Z,17.80
2023-07-01T05:23:34.138Z,17.90
2023-07-01T05:26:03.603Z,17.90
2023-07-01T05:28:31.735Z,18.00
2023-07-01T05:31:00.076Z,18.00
2023-07-01T05:33:28.149Z,18.00
2023-07-01T05:35:56.151Z,17.90
2023-07-01T05:38:24.300Z,17.90
2023-07-01T05:40:52.468Z,18.00
2023-07-01T05:43:22.084Z,18.10
2023-07-01T05:45:50.224Z,18.10
2023-07-01T05:48:18.367Z,18.10
2023-07-01T05:50:46.758Z,18.10
2023-07-01T05:53:14.979Z,18.10
2023-07-01T05:55:43.114Z,18.30
2023-07-01T05:58:11.467Z,18.60
2023-07-01T06:00:41.094Z,18.80
2023-07-01T06:03:09.527Z,18.90
2023-07-01T06:05:37.791Z,18.90
2023-07-01T06:08:06.150Z,19.00
2023-07-01T06:10:34.254Z,19.00
2023-07-01T06:13:02.396Z,19.20
2023-07-01T06:15:30.449Z,19.00
2023-07-01T06:17:59.910Z,19.20
2023-07-01T06:20:28.097Z,19.10
2023-07-01T06:22:56.130Z,19.10
2023-07-01T06:25:24.216Z,19.30
2023-07-01T06:27:52.213Z,19.40
2023-07-01T06:30:20.238Z,19.50
2023-07-01T06:32:48.502Z,19.70
2023-07-01T06:35:18.032Z,19.90
2023-07-01T06:37:46.044Z,20.10
2023-07-01T06:40:14.161Z,20.20
2023-07-01T06:42:42.719Z,20.10
2023-07-01T06:45:11.419Z,20.00
2023-07-01T06:47:39.440Z,20.20
2023-07-01T06:50:08.846Z,20.20
2023-07-01T06:52:38.246Z,20.10
2023-07-01T06:55:07.756Z,20.40
2023-07-01T06:57:35.742Z,20.50
2023-07-01T07:00:04.388Z,20.50
2023-07-01T07:02:32.419Z,20.50
2023-07-01T07:05:00.528Z,20.40
2023-07-01T07:07:28.597Z,20.20
2023-07-01T07:09:58.061Z,20.20
2023-07-01T07:12:26.318Z,20.40
2023-07-01T07:14:54.491Z,20.60
2023-07-01T07:17:22.598Z,20.60
2023-07-01T07:19:51.960Z,20.70
2023-07-01T07:22:20.848Z,20.80
2023-07-01T07:24:49.004Z,20.90
2023-07-01T07:27:18.428Z,21.00
2023-07-01T07:29:46.458Z,21.00
2023-07-01T07:32:14.462Z,21.10
2023-07-01T07:34:42.463Z,21.10
2023-07-01T07:37:10.528Z,21.30
2023-07-01T07:39:38.538Z,21.40
2023-07-01T07:42:07.299Z,21.40
2023-07-01T07:44:37.163Z,21.40
2023-07-01T07:47:05.664Z,21.50
2023-07-01T07:49:33.840Z,21.50
2023-07-01T07:52:02.762Z,21.40
2023-07-01T07:54:30.924Z,21.30
2023-07-01T07:57:00.497Z,21.50
2023-07-01T07:59:30.090Z,21.30
2023-07-01T08:02:01.104Z,21.20
2023-07-01T08:04:29.476Z,21.50
2023-07-01T08:06:57.651Z,21.70
2023-07-01T08:09:25.735Z,21.40
2023-07-01T08:11:54.093Z,21.50
2023-07-01T08:14:22.198Z,21.70
2023-07-01T08:16:50.523Z,21.60
2023-07-01T08:19:20.032Z,21.70
2023-07-01T08:21:48.164Z,21.70
2023-07-01T08:24:16.784Z,21.90
2023-07-01T08:26:45.311Z,22.00
2023-07-01T08:29:13.432Z,22.00
2023-07-01T08:31:41.823Z,21.90
2023-07-01T08:34:10.770Z,22.00
2023-07-01T08:36:40.375Z,22.10
2023-07-01T08:39:09.111Z,22.00
2023-07-01T08:41:42.804Z,22.10
2023-07-01T08:44:12.756Z,22.00
2023-07-01T08:46:42.694Z,22.10
2023-07-01T08:49:11.885Z,22.00
2023-07-01T08:51:45.474Z,22.00
2023-07-01T08:54:14.110Z,22.10
2023-07-01T08:56:42.378Z,22.30
2023-07-01T08:59:10.709Z,22.30
2023-07-01T09:01:39.799Z,22.40
2023-07-01T09:04:08.214Z,22.60
2023-07-01T09:06:36.348Z,22.90
2023-07-01T09:09:05.834Z,23.20
2023-07-01T09:11:33.941Z,23.30
2023-07-01T09:14:01.906Z,23.30
2023-07-01T09:16:35.017Z,23.10
2023-07-01T09:19:06.987Z,23.10
2023-07-01T09:21:35.046Z,23.10
2023-07-01T09:24:03.171Z,23.30
2023-07-01T09:26:32.649Z,23.30
2023-07-01T09:29:01.447Z,23.30
2023-07-01T09:31:29.535Z,23.20
2023-07-01T09:34:02.962Z,23.20
2023-07-01T09:36:32.846Z,22.90
2023-07-01T09:39:02.319Z,22.90
2023-07-01T09:41:31.508Z,23.00
2023-07-01T09:44:01.384Z,23.20
2023-07-01T09:46:43.219Z,23.10
2023-07-01T09:49:11.939Z,23.10
2023-07-01T09:51:49.248Z,23.10
2023-07-01T09:54:27.480Z,23.30
2023-07-01T09:56:57.282Z,23.40
2023-07-01T09:59:27.565Z,23.40
2023-07-01T10:01:57.765Z,23.30
2023-07-01T10:04:29.678Z,23.40
2023-07-01T10:06:58.833Z,23.40
2023-07-01T10:09:29.509Z,23.50
2023-07-01T10:12:00.298Z,23.50
2023-07-01T10:14:34.791Z,23.40
2023-07-01T10:17:04.637Z,23.80
2023-07-01T10:19:34.379Z,23.90
2023-07-01T10:22:21.393Z,23.90
2023-07-01T10:24:56.627Z,23.80
2023-07-01T10:28:16.609Z,24.00
2023-07-01T10:31:15.997Z,24.20
2023-07-01T10:33:52.034Z,24.00
2023-07-01T10:36:20.007Z,24.00
2023-07-01T10:38:48.234Z,23.90
2023-07-01T10:41:16.430Z,24.00
2023-07-01T10:43:44.462Z,24.00
2023-07-01T10:46:15.255Z,24.10
2023-07-01T10:48:44.944Z,24.10
2023-07-01T10:51:13.981Z,24.40
2023-07-01T10:54:02.115Z,24.40
2023-07-01T10:56:31.749Z,24.60
2023-07-01T10:59:22.765Z,24.90
2023-07-01T11:01:53.386Z,25.00
2023-07-01T11:04:22.256Z,25.00
2023-07-01T11:06:52.097Z,25.00
2023-07-01T11:09:30.141Z,24.80
2023-07-01T11:11:58.532Z,24.70
2023-07-01T11:14:32.766Z,24.70
2023-07-01T11:17:10.639Z,24.60
2023-07-01T11:19:39.347Z,24.60
2023-07-01T11:22:08.001Z,24.40
2023-07-01T11:24:38.015Z,24.40
2023-07-01T11:27:09.196Z,24.40
2023-07-01T11:29:39.252Z,24.50
2023-07-01T11:32:13.835Z,24.60
2023-07-01T11:34:42.512Z,24.60
2023-07-01T11:37:10.763Z,24.40
2023-07-01T11:39:45.841Z,24.50
2023-07-01T11:42:14.220Z,24.60
2023-07-01T11:44:42.351Z,24.60
2023-07-01T11:47:15.575Z,24.60
2023-07-01T11:49:43.874Z,24.60
2023-07-01T11:52:11.928Z,24.80
2023-07-01T11:54:48.135Z,24.60
2023-07-01T11:57:17.198Z,24.60
2023-07-01T11:59:47.359Z,24.30
2023-07-01T12:02:17.244Z,24.10
2023-07-01T12:04:45.560Z,24.10
2023-07-01T12:07:14.656Z,24.00
2023-07-01T12:09:45.969Z,23.90
2023-07-01T12:12:17.355Z,23.80
2023-07-01T12:14:46.425Z,23.70
2023-07-01T12:17:30.501Z,23.60
2023-07-01T12:19:59.924Z,23.60
2023-07-01T12:22:29.042Z,23.60
2023-07-01T12:25:01.420Z,23.60
2023-07-01T12:27:31.217Z,23.60
2023-07-01T12:29:59.245Z,23.40
2023-07-01T12:32:29.100Z,23.30
2023-07-01T12:34:57.470Z,23.20
2023-07-01T12:37:26.544Z,23.30
2023-07-01T12:39:55.172Z,23.30
2023-07-01T12:42:24.172Z,23.10
2023-07-01T12:44:52.249Z,22.90
2023-07-01T12:47:20.812Z,22.80
2023-07-01T12:49:50.593Z,22.70
2023-07-01T12:52:18.647Z,22.60
2023-07-01T12:54:46.700Z,22.50
2023-07-01T12:57:14.767Z,22.50
2023-07-01T12:59:46.417Z,22.30
2023-07-01T13:02:14.718Z,22.00
2023-07-01T13:04:42.905Z,22.00
2023-07-01T13:07:19.304Z,21.80
2023-07-01T13:09:51.472Z,21.90
2023-07-01T13:12:20.959Z,21.80
2023-07-01T13:14:49.126Z,22.00
2023-07-01T13:17:17.304Z,22.00
2023-07-01T13:19:45.564Z,22.10
2023-07-01T13:22:16.344Z,22.10
2023-07-01T13:24:46.301Z,22.20
2023-07-01T13:27:16.958Z,22.10
2023-07-01T13:29:45.031Z,22.00
2023-07-01T13:32:13.138Z,22.00
2023-07-01T13:34:44.989Z,22.00
2023-07-01T13:37:19.008Z,22.00
2023-07-01T13:39:50.643Z,22.00
2023-07-01T13:42:23.944Z,22.10
2023-07-01T13:44:54.068Z,22.20
2023-07-01T13:47:40.152Z,22.30
2023-07-01T13:50:12.729Z,22.30
2023-07-01T13:52:42.005Z,22.20
2023-07-01T13:55:12.228Z,22.30
2023-07-01T13:57:40.356Z,22.20
2023-07-01T14:00:09.951Z,22.10
2023-07-01T14:02:40.050Z,22.10
2023-07-01T14:05:08.713Z,22.10
2023-07-01T14:07:38.584Z,22.20
2023-07-01T14:10:08.668Z,22.20
2023-07-01T14:12:38.142Z,22.30
2023-07-01T14:15:07.444Z,22.20
2023-07-01T14:17:35.801Z,22.30
2023-07-01T14:20:04.445Z,22.40
2023-07-01T14:22:32.400Z,22.30
2023-07-01T14:25:00.401Z,22.20
2023-07-01T14:27:29.255Z,22.00
2023-07-01T14:29:58.580Z,22.10
2023-07-01T14:32:26.658Z,22.00
2023-07-01T14:34:54.666Z,22.00
2023-07-01T14:37:22.610Z,22.00
2023-07-01T14:39:54.895Z,22.00
2023-07-01T14:42:26.020Z,22.00
2023-07-01T14:44:54.139Z,22.00
2023-07-01T14:47:23.773Z,22.00
2023-07-01T14:49:51.836Z,22.10
2023-07-01T14:52:21.420Z,22.20
2023-07-01T14:54:51.225Z,22.40
2023-07-01T14:57:19.236Z,22.50
2023-07-01T14:59:47.253Z,22.50
2023-07-01T15:02:15.223Z,22.50
2023-07-01T15:04:44.656Z,22.30
2023-07-01T15:07:12.922Z,22.30
2023-07-01T15:09:40.961Z,22.20
2023-07-01T15:12:09.649Z,22.30
2023-07-01T15:14:37.669Z,22.30
2023-07-01T15:17:06.245Z,22.40
2023-07-01T15:19:35.917Z,22.40
2023-07-01T15:22:05.699Z,22.40
2023-07-01T15:24:33.812Z,22.20
2023-07-01T15:27:02.239Z,22.20
2023-07-01T15:29:30.469Z,22.20
2023-07-01T15:31:58.570Z,22.10
2023-07-01T15:34:26.601Z,22.20
2023-07-01T15:36:54.676Z,22.20
2023-07-01T15:39:24.290Z,22.00
2023-07-01T15:41:52.249Z,21.90
2023-07-01T15:44:20.285Z,21.60
2023-07-01T15:46:48.397Z,21.50
2023-07-01T15:49:16.460Z,21.30
2023-07-01T15:51:44.697Z,21.20
2023-07-01T15:54:13.973Z,21.10
2023-07-01T15:56:43.348Z,20.90
2023-07-01T15:59:12.104Z,20.80
2023-07-01T16:01:40.138Z,20.90
2023-07-01T16:04:08.371Z,20.70
2023-07-01T16:06:37.214Z,20.70
2023-07-01T16:09:52.997Z,20.90
2023-07-01T16:12:33.574Z,20.80
2023-07-01T16:15:04.145Z,20.50
2023-07-01T16:17:33.052Z,20.50
2023-07-01T16:20:01.374Z,20.40
2023-07-01T16:22:29.394Z,20.40
2023-07-01T16:25:00.319Z,20.40
2023-07-01T16:27:30.299Z,20.50
2023-07-01T16:30:02.156Z,20.40
2023-07-01T16:32:32.189Z,20.30
2023-07-01T16:35:01.164Z,20.30
2023-07-01T16:37:30.491Z,20.30
2023-07-01T16:39:58.982Z,20.30
2023-07-01T16:42:37.091Z,20.30
2023-07-01T16:45:13.351Z,20.20
2023-07-01T16:47:41.353Z,20.10
2023-07-01T16:50:17.289Z,20.10
2023-07-01T16:52:45.365Z,20.10
2023-07-01T16:55:33.399Z,20.10
2023-07-01T16:58:02.913Z,20.20
2023-07-01T17:00:31.011Z,20.10
2023-07-01T17:03:17.020Z,20.10
2023-07-01T17:05:45.252Z,20.20
2023-07-01T17:08:22.681Z,20.30
2023-07-01T17:10:51.195Z,20.30
2023-07-01T17:13:31.893Z,20.30
2023-07-01T17:16:01.992Z,20.10
2023-07-01T17:18:30.542Z,20.10
2023-07-01T17:20:58.595Z,20.10
2023-07-01T17:23:26.970Z,20.10
2023-07-01T17:25:55.595Z,20.00
2023-07-01T17:28:23.578Z,20.00
2023-07-01T17:30:52.943Z,19.90
2023-07-01T17:33:20.949Z,19.80
2023-07-01T17:35:49.147Z,19.90
2023-07-01T17:38:17.842Z,19.80
2023-07-01T17:40:45.818Z,19.80
2023-07-01T17:43:13.817Z,19.80
2023-07-01T17:45:42.314Z,19.80
2023-07-01T17:48:12.014Z,19.60
2023-07-01T17:50:40.061Z,19.60
2023-07-01T17:53:08.367Z,19.60
2023-07-01T17:55:37.815Z,19.50
2023-07-01T17:58:05.810Z,19.40
2023-07-01T18:00:33.869Z,19.30
2023-07-01T18:03:01.961Z,19.20
2023-07-01T18:05:31.553Z,19.10
2023-07-01T18:07:59.634Z,19.10
2023-07-01T18:10:27.734Z,19.00
2023-07-01T18:12:56.260Z,19.00
2023-07-01T18:15:24.308Z,19.00
2023-07-01T18:17:52.980Z,19.00
2023-07-01T18:20:22.242Z,18.80
2023-07-01T18:22:51.628Z,18.80
2023-07-01T18:25:19.816Z,18.70
2023-07-01T18:27:47.999Z,18.70
2023-07-01T18:30:16.078Z,18.70
2023-07-01T18:32:45.618Z,18.70
2023-07-01T18:35:16.203Z,18.70
2023-07-01T18:37:48.389Z,18.60
2023-07-01T18:40:18.242Z,18.60
2023-07-01T18:42:47.087Z,18.60
2023-07-01T18:45:15.512Z,18.60
2023-07-01T18:47:44.383Z,18.60
2023-07-01T18:50:13.223Z,18.90
2023-07-01T18:52:42.075Z,18.90
2023-07-01T18:55:10.735Z,18.70
2023-07-01T18:57:40.070Z,18.70
2023-07-01T19:00:09.343Z,18.70
2023-07-01T19:02:37.572Z,18.70
2023-07-01T19:05:06.696Z,18.70
2023-07-01T19:07:35.063Z,18.70
2023-07-01T19:10:05.036Z,18.80
2023-07-01T19:12:33.408Z,18.60
2023-07-01T19:15:02.821Z,18.60
2023-07-01T19:17:30.860Z,18.50
2023-07-01T19:19:58.971Z,18.60
2023-07-01T19:22:31.087Z,18.60
2023-07-01T19:25:00.536Z,18.60
2023-07-01T19:27:30.854Z,18.80
2023-07-01T19:30:12.730Z,18.60
2023-07-01T19:32:43.429Z,18.50
2023-07-01T19:35:12.224Z,18.70
2023-07-01T19:37:40.519Z,18.60
2023-07-01T19:40:09.403Z,18.60
2023-07-01T19:42:41.456Z,18.60
2023-07-01T19:45:12.154Z,18.50
2023-07-01T19:47:41.035Z,18.50
2023-07-01T19:50:12.339Z,18.60
2023-07-01T19:52:42.362Z,18.70
2023-07-01T19:55:11.805Z,18.70
2023-07-01T19:57:40.517Z,18.70
2023-07-01T20:00:10.632Z,18.80
2023-07-01T20:02:39.705Z,18.70
2023-07-01T20:05:10.527Z,18.70
2023-07-01T20:07:38.632Z,18.60
2023-07-01T20:10:20.102Z,18.70
2023-07-01T20:12:55.569Z,18.70
2023-07-01T20:15:23.563Z,18.70
2023-07-01T20:17:51.578Z,18.60
2023-07-01T20:20:21.109Z,18.60
2023-07-01T20:22:49.352Z,18.60
2023-07-01T20:25:17.540Z,18.80
2023-07-01T20:27:46.148Z,18.70
2023-07-01T20:30:14.550Z,18.70
2023-07-01T20:32:42.620Z,18.80
2023-07-01T20:35:10.842Z,18.80
2023-07-01T20:37:41.066Z,18.70
2023-07-01T20:40:10.216Z,18.70
2023-07-01T20:42:38.923Z,18.70
2023-07-01T20:45:08.332Z,18.70
2023-07-01T20:47:36.300Z,18.60
2023-07-01T20:50:04.517Z,18.70
2023-07-01T20:52:35.189Z,18.70
2023-07-01T20:55:04.760Z,18.70
2023-07-01T20:57:32.882Z,18.70
2023-07-01T21:00:01.008Z,18.70
2023-07-01T21:02:29.040Z,18.70
2023-07-01T21:04:57.195Z,18.80
2023-07-01T21:07:25.205Z,18.80
2023-07-01T21:09:53.212Z,18.80
2023-07-01T21:12:22.572Z,18.70
2023-07-01T21:14:50.595Z,18.60
2023-07-01T21:17:20.005Z,18.60
2023-07-01T21:19:48.183Z,18.70
2023-07-01T21:22:16.221Z,18.70
2023-07-01T21:24:44.319Z,18.60
2023-07-01T21:27:57.898Z,18.60
2023-07-01T21:30:28.723Z,18.70
2023-07-01T21:32:57.407Z,18.60
2023-07-01T21:35:30.532Z,18.50
2023-07-01T21:37:58.819Z,18.50
2023-07-01T21:40:32.436Z,18.40
2023-07-01T21:43:01.824Z,18.40
2023-07-01T21:45:33.970Z,18.30
2023-07-01T21:48:02.105Z,18.30
2023-07-01T21:50:54.753Z,18.20
2023-07-01T21:53:24.873Z,18.50
2023-07-01T21:55:54.996Z,18.40
2023-07-01T21:58:30.025Z,18.30
2023-07-01T22:01:02.190Z,18.30
2023-07-01T22:03:30.880Z,18.30
2023-07-01T22:05:59.505Z,18.30
2023-07-01T22:08:27.573Z,18.10
2023-07-01T22:10:58.767Z,18.10
2023-07-01T22:13:29.299Z,18.00
2023-07-01T22:15:57.414Z,17.90
2023-07-01T22:18:25.507Z,17.90
2023-07-01T22:20:53.520Z,17.90
2023-07-01T22:23:21.543Z,17.90
2023-07-01T22:25:49.554Z,17.80
2023-07-01T22:28:17.821Z,17.80
2023-07-01T22:30:47.401Z,17.80
2023-07-01T22:33:15.504Z,17.70
2023-07-01T22:35:43.903Z,17.70
2023-07-01T22:38:15.178Z,17.70
2023-07-01T22:40:43.448Z,17.70
2023-07-01T22:43:11.435Z,17.60
2023-07-01T22:45:39.483Z,17.80
2023-07-01T22:48:09.149Z,17.70
2023-07-01T22:50:37.190Z,17.60
2023-07-01T22:53:05.269Z,17.60
2023-07-01T22:55:33.579Z,17.60
2023-07-01T22:58:01.616Z,17.40
2023-07-01T23:00:29.836Z,17.50
2023-07-01T23:02:57.911Z,17.40
2023-07-01T23:05:27.644Z,17.60
2023-07-01T23:07:55.717Z,17.40
2023-07-01T23:10:24.175Z,17.40
2023-07-01T23:12:52.292Z,17.50
2023-07-01T23:15:20.604Z,17.60
2023-07-01T23:17:48.930Z,17.60
2023-07-01T23:20:17.145Z,17.60
2023-07-01T23:22:50.065Z,17.60
2023-07-01T23:25:18.197Z,17.50
2023-07-01T23:27:46.704Z,17.60
2023-07-01T23:30:17.786Z,17.50
2023-07-01T23:32:52.874Z,17.70
2023-07-01T23:35:22.127Z,17.50
2023-07-01T23:37:52.283Z,17.60
2023-07-01T23:40:20.663Z,17.70
2023-07-01T23:42:48.722Z,17.80
2023-07-01T23:45:17.132Z,17.80
2023-07-01T23:47:48.513Z,17.80
2023-07-01T23:50:18.132Z,17.80
2023-07-01T23:52:46.316Z,17.80
2023-07-01T23:55:15.857Z,17.90
2023-07-01T23:57:44.091Z,17.90
